Aeroporto :
LOGIN :

Iscrizione | Disclaimer

   EN    FR    IT 

 










Sommario :    VFR   VFR Marginale   IFR   IFR Intensivo   IFR Molto Intensivo
Visibilità : 
Base nubi : 
>= 8 km
>= 3000ft
5 / 8 km
1000 / 3000 ft
1500m / 5 km
500 / 1000 ft
800 / 1500m
200 / 500 ft
< 800m
< 200 ft
Simboli :   Temporali  Nebbia  Neve Forte  Precipitazioni Forti  Vento > 20 kt
SIGMETs :   Varie  Temporali  Ghiacco  Turbolenza  Onda orograficha  Ceneri Vulcaniche






- Altitudine del aeroporto : 1000 ft
- Codice IATA : PEV


LHPP - Pécs Pogany

ULTIMO METAR :
  • 131115Z 13014KT CAVOK 16/11 Q0997

METARs OBSOLETI :
  • 131045Z 12015KT CAVOK 16/10 Q0997
  • 131015Z 12016KT CAVOK 16/11 Q0997
  • 130945Z 13016KT CAVOK 14/10 Q0998
  • 130845Z 12016KT CAVOK 14/09 Q0998

TAF TAF LHPP
Valido dal 13 a 12 ore il 13 a 21 ore UTC


131115Z 1312/1321 14015KT CAVOK
BECMG 1312/1315 22008KT
PROB40
TEMPO 1312/1320 6000 SHRA RA BKN030TCU OVC060
PROB30
TEMPO 1315/1318 BKN010
BECMG 1315/1318 28010KT



MetMap, La meteo Aeronautica in un colpo d'occhio ! - Copyright ORBIFLY Dicembre 2007 - Disclaimer

ORBIFLY MET'MAP TEAM :

Programmazione e sviluppo : Alexandra Zaïnal
Concezione e sviluppo : Baudouin d'Aumeries
Co-Programmazione e sviluppo : Marc-Olivier Méhu
Supporto tecnico e logistico : Manuel Goepfert
Aiuto per la traduzione : Arnaldo La Scala

Contatto : metmap@orbifly.com




FONTI E CREDITI :

   NOAA